sensor_id;sensor_type;location;lat;lon;timestamp;temperature;humidity
46137;DHT22;31871;49.418;8.752;2022-10-16T00:01:10;17.40;99.90
46137;DHT22;31871;49.418;8.752;2022-10-16T00:03:39;17.30;99.90
46137;DHT22;31871;49.418;8.752;2022-10-16T00:06:06;17.40;99.90
46137;DHT22;31871;49.418;8.752;2022-10-16T00:08:32;17.40;99.90
46137;DHT22;31871;49.418;8.752;2022-10-16T00:11:07;17.40;99.90
46137;DHT22;31871;49.418;8.752;2022-10-16T00:13:34;17.40;99.90
46137;DHT22;31871;49.418;8.752;2022-10-16T00:16:00;17.50;99.90
46137;DHT22;31871;49.418;8.752;2022-10-16T00:18:26;17.50;99.90
46137;DHT22;31871;49.418;8.752;2022-10-16T00:20:52;17.50;99.90
46137;DHT22;31871;49.418;8.752;2022-10-16T00:23:18;17.60;99.90
46137;DHT22;31871;49.418;8.752;2022-10-16T00:25:44;17.50;99.90
46137;DHT22;31871;49.418;8.752;2022-10-16T00:28:10;17.50;99.90
46137;DHT22;31871;49.418;8.752;2022-10-16T00:30:39;17.60;99.90
46137;DHT22;31871;49.418;8.752;2022-10-16T00:33:04;17.60;99.90
46137;DHT22;31871;49.418;8.752;2022-10-16T00:35:30;17.50;99.90
46137;DHT22;31871;49.418;8.752;2022-10-16T00:37:56;17.50;99.90
46137;DHT22;31871;49.418;8.752;2022-10-16T00:40:21;17.50;99.90
46137;DHT22;31871;49.418;8.752;2022-10-16T00:42:47;17.60;99.90
46137;DHT22;31871;49.418;8.752;2022-10-16T00:45:13;17.50;99.90
46137;DHT22;31871;49.418;8.752;2022-10-16T00:47:45;17.50;99.90
46137;DHT22;31871;49.418;8.752;2022-10-16T00:50:18;17.40;99.90
46137;DHT22;31871;49.418;8.752;2022-10-16T00:52:48;17.40;99.90
46137;DHT22;31871;49.418;8.752;2022-10-16T00:55:15;17.40;99.90
46137;DHT22;31871;49.418;8.752;2022-10-16T00:57:42;17.30;99.90
46137;DHT22;31871;49.418;8.752;2022-10-16T01:00:11;17.10;99.90
46137;DHT22;31871;49.418;8.752;2022-10-16T01:02:37;17.00;99.90
46137;DHT22;31871;49.418;8.752;2022-10-16T01:05:04;17.00;99.90
46137;DHT22;31871;49.418;8.752;2022-10-16T01:10:39;16.90;99.90
46137;DHT22;31871;49.418;8.752;2022-10-16T01:13:11;16.80;99.90
46137;DHT22;31871;49.418;8.752;2022-10-16T01:15:53;16.90;99.90
46137;DHT22;31871;49.418;8.752;2022-10-16T01:18:43;16.90;99.90
46137;DHT22;31871;49.418;8.752;2022-10-16T01:21:32;16.80;99.90
46137;DHT22;31871;49.418;8.752;2022-10-16T01:30:08;16.90;99.90
46137;DHT22;31871;49.418;8.752;2022-10-16T01:32:51;16.80;99.90
46137;DHT22;31871;49.418;8.752;2022-10-16T01:37:57;16.70;99.90
46137;DHT22;31871;49.418;8.752;2022-10-16T01:40:26;16.60;99.90
46137;DHT22;31871;49.418;8.752;2022-10-16T01:43:08;16.60;99.90
46137;DHT22;31871;49.418;8.752;2022-10-16T01:45:35;16.60;99.90
46137;DHT22;31871;49.418;8.752;2022-10-16T01:48:02;16.50;99.90
46137;DHT22;31871;49.418;8.752;2022-10-16T01:50:33;16.50;99.90
46137;DHT22;31871;49.418;8.752;2022-10-16T01:53:02;16.50;99.90
46137;DHT22;31871;49.418;8.752;2022-10-16T01:55:33;16.40;99.90
46137;DHT22;31871;49.418;8.752;2022-10-16T01:58:01;16.30;99.90
46137;DHT22;31871;49.418;8.752;2022-10-16T02:00:29;16.30;99.90
46137;DHT22;31871;49.418;8.752;2022-10-16T02:02:57;16.30;99.90
46137;DHT22;31871;49.418;8.752;2022-10-16T02:05:28;16.30;99.90
46137;DHT22;31871;49.418;8.752;2022-10-16T02:07:55;16.40;99.90
46137;DHT22;31871;49.418;8.752;2022-10-16T02:10:22;16.40;99.90
46137;DHT22;31871;49.418;8.752;2022-10-16T02:12:55;16.40;99.90
46137;DHT22;31871;49.418;8.752;2022-10-16T02:15:22;16.40;99.90
46137;DHT22;31871;49.418;8.752;2022-10-16T02:17:47;16.40;99.90
46137;DHT22;31871;49.418;8.752;2022-10-16T02:20:13;16.30;99.90
46137;DHT22;31871;49.418;8.752;2022-10-16T02:22:43;16.30;99.90
46137;DHT22;31871;49.418;8.752;2022-10-16T02:25:15;16.30;99.90
46137;DHT22;31871;49.418;8.752;2022-10-16T02:27:55;16.30;99.90
46137;DHT22;31871;49.418;8.752;2022-10-16T02:30:36;16.30;99.90
46137;DHT22;31871;49.418;8.752;2022-10-16T02:33:06;16.30;99.90
46137;DHT22;31871;49.418;8.752;2022-10-16T02:35:33;16.30;99.90
46137;DHT22;31871;49.418;8.752;2022-10-16T02:37:59;16.30;99.90
46137;DHT22;31871;49.418;8.752;2022-10-16T02:40:25;16.30;99.90
46137;DHT22;31871;49.418;8.752;2022-10-16T02:42:53;16.30;99.90
46137;DHT22;31871;49.418;8.752;2022-10-16T02:45:20;16.30;99.90
46137;DHT22;31871;49.418;8.752;2022-10-16T02:47:46;16.30;99.90
46137;DHT22;31871;49.418;8.752;2022-10-16T02:50:12;16.30;99.90
46137;DHT22;31871;49.418;8.752;2022-10-16T02:52:37;16.20;99.90
46137;DHT22;31871;49.418;8.752;2022-10-16T02:55:03;16.30;99.90
46137;DHT22;31871;49.418;8.752;2022-10-16T02:57:29;16.30;99.90
46137;DHT22;31871;49.418;8.752;2022-10-16T02:59:54;16.30;99.90
46137;DHT22;31871;49.418;8.752;2022-10-16T03:02:20;16.30;99.90
46137;DHT22;31871;49.418;8.752;2022-10-16T03:04:46;16.30;99.90
46137;DHT22;31871;49.418;8.752;2022-10-16T03:07:11;16.30;99.90
46137;DHT22;31871;49.418;8.752;2022-10-16T03:09:37;16.30;99.90
46137;DHT22;31871;49.418;8.752;2022-10-16T03:12:03;16.30;99.90
46137;DHT22;31871;49.418;8.752;2022-10-16T03:14:28;16.40;99.90
46137;DHT22;31871;49.418;8.752;2022-10-16T03:16:54;16.30;99.90
46137;DHT22;31871;49.418;8.752;2022-10-16T03:19:19;16.30;99.90
46137;DHT22;31871;49.418;8.752;2022-10-16T03:21:45;16.30;99.90
46137;DHT22;31871;49.418;8.752;2022-10-16T03:24:11;16.30;99.90
46137;DHT22;31871;49.418;8.752;2022-10-16T03:26:36;16.20;99.90
46137;DHT22;31871;49.418;8.752;2022-10-16T03:29:02;16.20;99.90
46137;DHT22;31871;49.418;8.752;2022-10-16T03:31:29;16.20;99.90
46137;DHT22;31871;49.418;8.752;2022-10-16T03:33:54;16.20;99.90
46137;DHT22;31871;49.418;8.752;2022-10-16T03:36:20;16.20;99.90
46137;DHT22;31871;49.418;8.752;2022-10-16T03:38:45;16.20;99.90
46137;DHT22;31871;49.418;8.752;2022-10-16T03:41:11;16.20;99.90
46137;DHT22;31871;49.418;8.752;2022-10-16T03:43:36;16.20;99.90
46137;DHT22;31871;49.418;8.752;2022-10-16T03:46:02;16.20;99.90
46137;DHT22;31871;49.418;8.752;2022-10-16T03:48:28;16.20;99.90
46137;DHT22;31871;49.418;8.752;2022-10-16T03:50:54;16.20;99.90
46137;DHT22;31871;49.418;8.752;2022-10-16T03:53:20;16.20;99.90
46137;DHT22;31871;49.418;8.752;2022-10-16T03:55:45;16.20;99.90
46137;DHT22;31871;49.418;8.752;2022-10-16T03:58:11;16.10;99.90
46137;DHT22;31871;49.418;8.752;2022-10-16T04:00:44;16.10;99.90
46137;DHT22;31871;49.418;8.752;2022-10-16T04:03:10;16.10;99.90
46137;DHT22;31871;49.418;8.752;2022-10-16T04:05:36;16.10;99.90
46137;DHT22;31871;49.418;8.752;2022-10-16T04:08:02;16.20;99.90
46137;DHT22;31871;49.418;8.752;2022-10-16T04:10:28;16.20;99.90
46137;DHT22;31871;49.418;8.752;2022-10-16T04:12:53;16.20;99.90
46137;DHT22;31871;49.418;8.752;2022-10-16T04:15:22;16.20;99.90
46137;DHT22;31871;49.418;8.752;2022-10-16T04:17:48;16.20;99.90
46137;DHT22;31871;49.418;8.752;2022-10-16T04:20:13;16.20;99.90
46137;DHT22;31871;49.418;8.752;2022-10-16T04:22:39;16.20;99.90
46137;DHT22;31871;49.418;8.752;2022-10-16T04:25:05;16.10;99.90
46137;DHT22;31871;49.418;8.752;2022-10-16T04:27:31;16.10;99.90
46137;DHT22;31871;49.418;8.752;2022-10-16T04:29:58;16.10;99.90
46137;DHT22;31871;49.418;8.752;2022-10-16T04:32:24;16.00;99.90
46137;DHT22;31871;49.418;8.752;2022-10-16T04:34:49;15.90;99.90
46137;DHT22;31871;49.418;8.752;2022-10-16T04:37:15;16.10;99.90
46137;DHT22;31871;49.418;8.752;2022-10-16T04:39:40;16.10;99.90
46137;DHT22;31871;49.418;8.752;2022-10-16T04:42:06;16.10;99.90
46137;DHT22;31871;49.418;8.752;2022-10-16T04:44:31;16.10;99.90
46137;DHT22;31871;49.418;8.752;2022-10-16T04:46:57;16.10;99.90
46137;DHT22;31871;49.418;8.752;2022-10-16T04:49:22;16.10;99.90
46137;DHT22;31871;49.418;8.752;2022-10-16T04:51:48;16.10;99.90
46137;DHT22;31871;49.418;8.752;2022-10-16T04:54:13;16.10;99.90
46137;DHT22;31871;49.418;8.752;2022-10-16T04:56:39;16.10;99.90
46137;DHT22;31871;49.418;8.752;2022-10-16T04:59:16;16.00;99.90
46137;DHT22;31871;49.418;8.752;2022-10-16T05:01:42;16.10;99.90
46137;DHT22;31871;49.418;8.752;2022-10-16T05:04:08;16.00;99.90
46137;DHT22;31871;49.418;8.752;2022-10-16T05:06:33;16.00;99.90
46137;DHT22;31871;49.418;8.752;2022-10-16T05:08:59;16.00;99.90
46137;DHT22;31871;49.418;8.752;2022-10-16T05:11:25;16.00;99.90
46137;DHT22;31871;49.418;8.752;2022-10-16T05:13:50;15.90;99.90
46137;DHT22;31871;49.418;8.752;2022-10-16T05:16:16;15.90;99.90
46137;DHT22;31871;49.418;8.752;2022-10-16T05:18:41;15.90;99.90
46137;DHT22;31871;49.418;8.752;2022-10-16T05:21:07;15.90;99.90
46137;DHT22;31871;49.418;8.752;2022-10-16T05:23:33;15.90;99.90
46137;DHT22;31871;49.418;8.752;2022-10-16T05:25:59;16.00;99.90
46137;DHT22;31871;49.418;8.752;2022-10-16T05:28:26;16.00;99.90
46137;DHT22;31871;49.418;8.752;2022-10-16T05:30:52;16.00;99.90
46137;DHT22;31871;49.418;8.752;2022-10-16T05:33:20;16.00;99.90
46137;DHT22;31871;49.418;8.752;2022-10-16T05:35:46;16.00;99.90
46137;DHT22;31871;49.418;8.752;2022-10-16T05:38:12;16.00;99.90
46137;DHT22;31871;49.418;8.752;2022-10-16T05:40:38;16.00;99.90
46137;DHT22;31871;49.418;8.752;2022-10-16T05:43:03;16.00;99.90
46137;DHT22;31871;49.418;8.752;2022-10-16T05:45:29;16.00;99.90
46137;DHT22;31871;49.418;8.752;2022-10-16T05:47:55;16.00;99.90
46137;DHT22;31871;49.418;8.752;2022-10-16T05:50:20;16.00;99.90
46137;DHT22;31871;49.418;8.752;2022-10-16T05:52:46;16.00;99.90
46137;DHT22;31871;49.418;8.752;2022-10-16T05:55:11;16.00;99.90
46137;DHT22;31871;49.418;8.752;2022-10-16T05:57:37;15.90;99.90
46137;DHT22;31871;49.418;8.752;2022-10-16T06:00:03;16.00;99.90
46137;DHT22;31871;49.418;8.752;2022-10-16T06:02:29;16.00;99.90
46137;DHT22;31871;49.418;8.752;2022-10-16T06:04:54;15.90;99.90
46137;DHT22;31871;49.418;8.752;2022-10-16T06:07:20;15.90;99.90
46137;DHT22;31871;49.418;8.752;2022-10-16T06:09:50;15.90;99.90
46137;DHT22;31871;49.418;8.752;2022-10-16T06:12:16;15.90;99.90
46137;DHT22;31871;49.418;8.752;2022-10-16T06:14:41;15.90;99.90
46137;DHT22;31871;49.418;8.752;2022-10-16T06:17:07;16.00;99.90
46137;DHT22;31871;49.418;8.752;2022-10-16T06:19:33;16.00;99.90
46137;DHT22;31871;49.418;8.752;2022-10-16T06:21:58;16.00;99.90
46137;DHT22;31871;49.418;8.752;2022-10-16T06:24:24;16.00;99.90
46137;DHT22;31871;49.418;8.752;2022-10-16T06:26:50;15.90;99.90
46137;DHT22;31871;49.418;8.752;2022-10-16T06:29:15;16.00;99.90
46137;DHT22;31871;49.418;8.752;2022-10-16T06:31:41;16.10;99.90
46137;DHT22;31871;49.418;8.752;2022-10-16T06:34:09;16.10;99.90
46137;DHT22;31871;49.418;8.752;2022-10-16T06:36:36;16.00;99.90
46137;DHT22;31871;49.418;8.752;2022-10-16T06:39:02;16.00;99.90
46137;DHT22;31871;49.418;8.752;2022-10-16T06:41:28;16.00;99.90
46137;DHT22;31871;49.418;8.752;2022-10-16T06:43:53;15.90;99.90
46137;DHT22;31871;49.418;8.752;2022-10-16T06:46:21;16.00;99.90
46137;DHT22;31871;49.418;8.752;2022-10-16T06:48:47;16.00;99.90
46137;DHT22;31871;49.418;8.752;2022-10-16T06:51:14;15.90;99.90
46137;DHT22;31871;49.418;8.752;2022-10-16T06:53:46;15.90;99.90
46137;DHT22;31871;49.418;8.752;2022-10-16T06:56:16;16.00;99.90
46137;DHT22;31871;49.418;8.752;2022-10-16T06:58:42;16.00;99.90
46137;DHT22;31871;49.418;8.752;2022-10-16T07:01:09;16.00;99.90
46137;DHT22;31871;49.418;8.752;2022-10-16T07:03:39;15.90;99.90
46137;DHT22;31871;49.418;8.752;2022-10-16T07:06:07;16.00;99.90
46137;DHT22;31871;49.418;8.752;2022-10-16T07:08:34;16.00;99.90
46137;DHT22;31871;49.418;8.752;2022-10-16T07:11:01;16.00;99.90
46137;DHT22;31871;49.418;8.752;2022-10-16T07:13:27;16.00;99.90
46137;DHT22;31871;49.418;8.752;2022-10-16T07:15:53;16.00;99.90
46137;DHT22;31871;49.418;8.752;2022-10-16T07:18:18;16.00;99.90
46137;DHT22;31871;49.418;8.752;2022-10-16T07:20:44;16.00;99.90
46137;DHT22;31871;49.418;8.752;2022-10-16T07:23:10;16.10;99.90
46137;DHT22;31871;49.418;8.752;2022-10-16T07:25:35;16.10;99.90
46137;DHT22;31871;49.418;8.752;2022-10-16T07:28:01;16.10;99.90
46137;DHT22;31871;49.418;8.752;2022-10-16T07:30:26;16.10;99.90
46137;DHT22;31871;49.418;8.752;2022-10-16T07:32:52;16.10;99.90
46137;DHT22;31871;49.418;8.752;2022-10-16T07:35:18;16.20;99.90
46137;DHT22;31871;49.418;8.752;2022-10-16T07:37:46;16.20;99.90
46137;DHT22;31871;49.418;8.752;2022-10-16T07:40:12;16.20;99.90
46137;DHT22;31871;49.418;8.752;2022-10-16T07:42:38;16.20;99.90
46137;DHT22;31871;49.418;8.752;2022-10-16T07:45:04;16.20;99.90
46137;DHT22;31871;49.418;8.752;2022-10-16T07:47:30;16.30;99.90
46137;DHT22;31871;49.418;8.752;2022-10-16T07:49:55;16.30;99.90
46137;DHT22;31871;49.418;8.752;2022-10-16T07:52:21;16.30;99.90
46137;DHT22;31871;49.418;8.752;2022-10-16T07:54:46;16.30;99.90
46137;DHT22;31871;49.418;8.752;2022-10-16T07:57:12;16.40;99.90
46137;DHT22;31871;49.418;8.752;2022-10-16T07:59:44;16.40;99.90
46137;DHT22;31871;49.418;8.752;2022-10-16T08:02:09;16.50;99.90
46137;DHT22;31871;49.418;8.752;2022-10-16T08:04:35;16.60;99.90
46137;DHT22;31871;49.418;8.752;2022-10-16T08:07:00;16.60;99.90
46137;DHT22;31871;49.418;8.752;2022-10-16T08:09:26;16.60;99.90
46137;DHT22;31871;49.418;8.752;2022-10-16T08:11:51;16.60;99.90
46137;DHT22;31871;49.418;8.752;2022-10-16T08:14:17;16.60;99.90
46137;DHT22;31871;49.418;8.752;2022-10-16T08:16:43;16.80;99.90
46137;DHT22;31871;49.418;8.752;2022-10-16T08:19:09;16.80;99.90
46137;DHT22;31871;49.418;8.752;2022-10-16T08:21:34;16.80;99.90
46137;DHT22;31871;49.418;8.752;2022-10-16T08:24:00;16.90;99.90
46137;DHT22;31871;49.418;8.752;2022-10-16T08:26:26;17.00;99.90
46137;DHT22;31871;49.418;8.752;2022-10-16T08:28:52;17.00;99.90
46137;DHT22;31871;49.418;8.752;2022-10-16T08:31:18;17.00;99.90
46137;DHT22;31871;49.418;8.752;2022-10-16T08:33:44;17.00;99.90
46137;DHT22;31871;49.418;8.752;2022-10-16T08:36:12;17.00;99.90
46137;DHT22;31871;49.418;8.752;2022-10-16T08:38:38;17.00;99.90
46137;DHT22;31871;49.418;8.752;2022-10-16T08:44:17;17.20;99.90
46137;DHT22;31871;49.418;8.752;2022-10-16T08:46:52;17.20;99.90
46137;DHT22;31871;49.418;8.752;2022-10-16T08:49:21;17.20;99.90
46137;DHT22;31871;49.418;8.752;2022-10-16T08:51:49;17.10;99.90
46137;DHT22;31871;49.418;8.752;2022-10-16T08:54:30;17.10;99.90
46137;DHT22;31871;49.418;8.752;2022-10-16T08:57:06;17.10;99.90
46137;DHT22;31871;49.418;8.752;2022-10-16T08:59:32;17.10;99.90
46137;DHT22;31871;49.418;8.752;2022-10-16T09:01:58;17.10;99.90
46137;DHT22;31871;49.418;8.752;2022-10-16T09:04:46;17.10;99.90
46137;DHT22;31871;49.418;8.752;2022-10-16T09:12:53;17.50;99.90
46137;DHT22;31871;49.418;8.752;2022-10-16T09:18:26;17.70;99.90
46137;DHT22;31871;49.418;8.752;2022-10-16T09:23:40;17.80;99.90
46137;DHT22;31871;49.418;8.752;2022-10-16T09:26:11;17.90;99.90
46137;DHT22;31871;49.418;8.752;2022-10-16T09:28:37;17.80;99.90
46137;DHT22;31871;49.418;8.752;2022-10-16T09:31:03;17.90;99.90
46137;DHT22;31871;49.418;8.752;2022-10-16T09:33:35;17.90;99.90
46137;DHT22;31871;49.418;8.752;2022-10-16T09:36:04;18.00;99.90
46137;DHT22;31871;49.418;8.752;2022-10-16T09:38:35;18.20;99.90
46137;DHT22;31871;49.418;8.752;2022-10-16T09:41:23;18.30;99.90
46137;DHT22;31871;49.418;8.752;2022-10-16T09:46:36;18.80;99.90
46137;DHT22;31871;49.418;8.752;2022-10-16T09:49:03;19.00;99.90
46137;DHT22;31871;49.418;8.752;2022-10-16T09:51:32;19.30;99.90
46137;DHT22;31871;49.418;8.752;2022-10-16T09:56:35;19.70;99.90
46137;DHT22;31871;49.418;8.752;2022-10-16T09:59:18;19.80;99.90
46137;DHT22;31871;49.418;8.752;2022-10-16T10:01:47;19.80;99.90
46137;DHT22;31871;49.418;8.752;2022-10-16T10:04:13;19.70;99.90
46137;DHT22;31871;49.418;8.752;2022-10-16T10:06:47;19.60;99.90
46137;DHT22;31871;49.418;8.752;2022-10-16T10:09:17;19.50;99.90
46137;DHT22;31871;49.418;8.752;2022-10-16T10:12:01;19.50;99.90
46137;DHT22;31871;49.418;8.752;2022-10-16T10:14:34;19.50;99.90
46137;DHT22;31871;49.418;8.752;2022-10-16T10:19:59;19.60;99.90
46137;DHT22;31871;49.418;8.752;2022-10-16T10:36:11;19.90;99.90
46137;DHT22;31871;49.418;8.752;2022-10-16T10:46:35;20.60;99.90
46137;DHT22;31871;49.418;8.752;2022-10-16T10:54:33;21.40;99.90
46137;DHT22;31871;49.418;8.752;2022-10-16T10:57:28;21.60;99.90
46137;DHT22;31871;49.418;8.752;2022-10-16T11:00:03;21.70;99.90
46137;DHT22;31871;49.418;8.752;2022-10-16T11:07:46;22.20;99.90
46137;DHT22;31871;49.418;8.752;2022-10-16T11:10:16;22.30;99.90
46137;DHT22;31871;49.418;8.752;2022-10-16T11:12:55;22.30;99.90
46137;DHT22;31871;49.418;8.752;2022-10-16T11:15:32;22.40;99.90
46137;DHT22;31871;49.418;8.752;2022-10-16T11:20:53;22.70;99.90
46137;DHT22;31871;49.418;8.752;2022-10-16T11:23:35;22.80;99.90
46137;DHT22;31871;49.418;8.752;2022-10-16T11:26:08;22.80;99.90
46137;DHT22;31871;49.418;8.752;2022-10-16T11:28:37;22.80;99.90
46137;DHT22;31871;49.418;8.752;2022-10-16T11:31:17;23.00;99.90
46137;DHT22;31871;49.418;8.752;2022-10-16T11:34:05;23.10;99.90
46137;DHT22;31871;49.418;8.752;2022-10-16T11:36:47;23.20;99.90
46137;DHT22;31871;49.418;8.752;2022-10-16T11:39:28;23.20;99.90
46137;DHT22;31871;49.418;8.752;2022-10-16T11:42:16;23.20;99.90
46137;DHT22;31871;49.418;8.752;2022-10-16T11:50:30;23.60;99.90
46137;DHT22;31871;49.418;8.752;2022-10-16T11:55:46;23.90;99.90
46137;DHT22;31871;49.418;8.752;2022-10-16T11:58:32;23.90;99.90
46137;DHT22;31871;49.418;8.752;2022-10-16T12:03:45;23.80;99.90
46137;DHT22;31871;49.418;8.752;2022-10-16T12:06:37;23.70;99.90
46137;DHT22;31871;49.418;8.752;2022-10-16T12:12:02;23.50;99.90
46137;DHT22;31871;49.418;8.752;2022-10-16T12:17:01;23.80;99.90
46137;DHT22;31871;49.418;8.752;2022-10-16T12:19:29;23.90;99.90
46137;DHT22;31871;49.418;8.752;2022-10-16T12:21:57;23.90;99.90
46137;DHT22;31871;49.418;8.752;2022-10-16T12:24:38;23.70;99.90
46137;DHT22;31871;49.418;8.752;2022-10-16T12:27:29;23.60;99.90
46137;DHT22;31871;49.418;8.752;2022-10-16T12:30:00;23.50;99.90
46137;DHT22;31871;49.418;8.752;2022-10-16T12:32:33;23.20;99.90
46137;DHT22;31871;49.418;8.752;2022-10-16T12:35:00;23.10;99.90
46137;DHT22;31871;49.418;8.752;2022-10-16T12:37:36;22.90;99.90
46137;DHT22;31871;49.418;8.752;2022-10-16T12:42:47;22.60;99.90
46137;DHT22;31871;49.418;8.752;2022-10-16T12:45:32;22.70;99.90
46137;DHT22;31871;49.418;8.752;2022-10-16T12:48:00;22.80;99.90
46137;DHT22;31871;49.418;8.752;2022-10-16T12:50:36;22.60;99.90
46137;DHT22;31871;49.418;8.752;2022-10-16T12:53:15;22.40;99.90
46137;DHT22;31871;49.418;8.752;2022-10-16T12:56:09;22.40;99.90
46137;DHT22;31871;49.418;8.752;2022-10-16T13:04:27;22.20;99.90
46137;DHT22;31871;49.418;8.752;2022-10-16T13:18:05;22.60;99.90
46137;DHT22;31871;49.418;8.752;2022-10-16T13:28:49;22.40;99.90
46137;DHT22;31871;49.418;8.752;2022-10-16T13:31:21;22.30;99.90
46137;DHT22;31871;49.418;8.752;2022-10-16T13:33:52;22.30;99.90
46137;DHT22;31871;49.418;8.752;2022-10-16T13:36:29;22.30;99.90
46137;DHT22;31871;49.418;8.752;2022-10-16T13:39:13;22.30;99.90
46137;DHT22;31871;49.418;8.752;2022-10-16T13:41:39;22.20;99.90
46137;DHT22;31871;49.418;8.752;2022-10-16T13:44:13;21.80;99.90
46137;DHT22;31871;49.418;8.752;2022-10-16T13:46:40;21.70;99.90
46137;DHT22;31871;49.418;8.752;2022-10-16T13:49:16;21.50;99.90
46137;DHT22;31871;49.418;8.752;2022-10-16T13:51:57;21.40;99.90
46137;DHT22;31871;49.418;8.752;2022-10-16T13:54:24;21.30;99.90
46137;DHT22;31871;49.418;8.752;2022-10-16T13:56:51;21.20;99.90
46137;DHT22;31871;49.418;8.752;2022-10-16T13:59:36;21.10;99.90
46137;DHT22;31871;49.418;8.752;2022-10-16T14:02:30;21.10;99.90
46137;DHT22;31871;49.418;8.752;2022-10-16T14:04:57;20.90;99.90
46137;DHT22;31871;49.418;8.752;2022-10-16T14:07:29;20.70;99.90
46137;DHT22;31871;49.418;8.752;2022-10-16T14:09:55;20.70;99.90
46137;DHT22;31871;49.418;8.752;2022-10-16T14:12:22;20.60;99.90
46137;DHT22;31871;49.418;8.752;2022-10-16T14:14:52;20.60;99.90
46137;DHT22;31871;49.418;8.752;2022-10-16T14:17:24;20.60;99.90
46137;DHT22;31871;49.418;8.752;2022-10-16T14:19:53;20.70;99.90
46137;DHT22;31871;49.418;8.752;2022-10-16T14:22:35;20.70;99.90
46137;DHT22;31871;49.418;8.752;2022-10-16T14:25:15;20.60;99.90
46137;DHT22;31871;49.418;8.752;2022-10-16T14:27:42;20.70;99.90
46137;DHT22;31871;49.418;8.752;2022-10-16T14:32:33;20.60;99.90
46137;DHT22;31871;49.418;8.752;2022-10-16T14:34:58;20.60;99.90
46137;DHT22;31871;49.418;8.752;2022-10-16T14:37:29;20.60;99.90
46137;DHT22;31871;49.418;8.752;2022-10-16T14:39:55;20.60;99.90
46137;DHT22;31871;49.418;8.752;2022-10-16T14:42:23;20.50;99.90
46137;DHT22;31871;49.418;8.752;2022-10-16T14:44:53;20.30;99.90
46137;DHT22;31871;49.418;8.752;2022-10-16T14:47:22;20.20;99.90
46137;DHT22;31871;49.418;8.752;2022-10-16T14:49:51;20.30;99.90
46137;DHT22;31871;49.418;8.752;2022-10-16T14:52:16;20.40;99.90
46137;DHT22;31871;49.418;8.752;2022-10-16T14:54:42;20.40;99.90
46137;DHT22;31871;49.418;8.752;2022-10-16T14:57:26;20.40;99.90
46137;DHT22;31871;49.418;8.752;2022-10-16T14:59:52;20.30;99.90
46137;DHT22;31871;49.418;8.752;2022-10-16T15:04:50;20.30;99.90
46137;DHT22;31871;49.418;8.752;2022-10-16T15:07:16;20.30;99.90
46137;DHT22;31871;49.418;8.752;2022-10-16T15:09:42;20.20;99.90
46137;DHT22;31871;49.418;8.752;2022-10-16T15:12:07;20.10;99.90
46137;DHT22;31871;49.418;8.752;2022-10-16T15:14:33;20.00;99.90
46137;DHT22;31871;49.418;8.752;2022-10-16T15:16:59;20.20;99.90
46137;DHT22;31871;49.418;8.752;2022-10-16T15:19:24;20.20;99.90
46137;DHT22;31871;49.418;8.752;2022-10-16T15:21:50;20.20;99.90
46137;DHT22;31871;49.418;8.752;2022-10-16T15:24:16;20.20;99.90
46137;DHT22;31871;49.418;8.752;2022-10-16T15:26:41;20.30;99.90
46137;DHT22;31871;49.418;8.752;2022-10-16T15:29:07;20.30;99.90
46137;DHT22;31871;49.418;8.752;2022-10-16T15:31:33;20.30;99.90
46137;DHT22;31871;49.418;8.752;2022-10-16T15:33:59;20.30;99.90
46137;DHT22;31871;49.418;8.752;2022-10-16T15:36:31;20.30;99.90
46137;DHT22;31871;49.418;8.752;2022-10-16T15:38:59;20.20;99.90
46137;DHT22;31871;49.418;8.752;2022-10-16T15:41:26;20.20;99.90
46137;DHT22;31871;49.418;8.752;2022-10-16T15:43:51;20.30;99.90
46137;DHT22;31871;49.418;8.752;2022-10-16T15:46:19;20.30;99.90
46137;DHT22;31871;49.418;8.752;2022-10-16T15:48:46;20.10;99.90
46137;DHT22;31871;49.418;8.752;2022-10-16T15:51:11;19.90;99.90
46137;DHT22;31871;49.418;8.752;2022-10-16T15:53:37;19.90;99.90
46137;DHT22;31871;49.418;8.752;2022-10-16T15:56:07;19.70;99.90
46137;DHT22;31871;49.418;8.752;2022-10-16T15:58:33;19.60;99.90
46137;DHT22;31871;49.418;8.752;2022-10-16T16:01:00;19.50;99.90
46137;DHT22;31871;49.418;8.752;2022-10-16T16:03:27;19.50;99.90
46137;DHT22;31871;49.418;8.752;2022-10-16T16:05:54;19.40;99.90
46137;DHT22;31871;49.418;8.752;2022-10-16T16:08:20;19.50;99.90
46137;DHT22;31871;49.418;8.752;2022-10-16T16:10:45;19.50;99.90
46137;DHT22;31871;49.418;8.752;2022-10-16T16:13:21;19.50;99.90
46137;DHT22;31871;49.418;8.752;2022-10-16T16:15:47;19.50;99.90
46137;DHT22;31871;49.418;8.752;2022-10-16T16:18:13;19.50;99.90
46137;DHT22;31871;49.418;8.752;2022-10-16T16:20:38;19.40;99.90
46137;DHT22;31871;49.418;8.752;2022-10-16T16:23:04;19.30;99.90
46137;DHT22;31871;49.418;8.752;2022-10-16T16:25:29;19.20;99.90
46137;DHT22;31871;49.418;8.752;2022-10-16T16:27:55;19.00;99.90
46137;DHT22;31871;49.418;8.752;2022-10-16T16:30:21;19.00;99.90
46137;DHT22;31871;49.418;8.752;2022-10-16T16:32:46;19.00;99.90
46137;DHT22;31871;49.418;8.752;2022-10-16T16:35:12;19.10;99.90
46137;DHT22;31871;49.418;8.752;2022-10-16T16:37:38;19.10;99.90
46137;DHT22;31871;49.418;8.752;2022-10-16T16:40:04;19.00;99.90
46137;DHT22;31871;49.418;8.752;2022-10-16T16:42:29;19.00;99.90
46137;DHT22;31871;49.418;8.752;2022-10-16T16:44:55;18.90;99.90
46137;DHT22;31871;49.418;8.752;2022-10-16T16:47:21;18.80;99.90
46137;DHT22;31871;49.418;8.752;2022-10-16T16:49:46;18.80;99.90
46137;DHT22;31871;49.418;8.752;2022-10-16T16:52:13;18.70;99.90
46137;DHT22;31871;49.418;8.752;2022-10-16T16:54:38;18.70;99.90
46137;DHT22;31871;49.418;8.752;2022-10-16T16:57:04;18.80;99.90
46137;DHT22;31871;49.418;8.752;2022-10-16T16:59:30;18.80;99.90
46137;DHT22;31871;49.418;8.752;2022-10-16T17:02:01;18.70;99.90
46137;DHT22;31871;49.418;8.752;2022-10-16T17:04:26;18.60;99.90
46137;DHT22;31871;49.418;8.752;2022-10-16T17:06:53;18.60;99.90
46137;DHT22;31871;49.418;8.752;2022-10-16T17:09:20;18.60;99.90
46137;DHT22;31871;49.418;8.752;2022-10-16T17:11:46;18.60;99.90
46137;DHT22;31871;49.418;8.752;2022-10-16T17:14:14;18.60;99.90
46137;DHT22;31871;49.418;8.752;2022-10-16T17:16:40;18.50;99.90
46137;DHT22;31871;49.418;8.752;2022-10-16T17:19:12;18.50;99.90
46137;DHT22;31871;49.418;8.752;2022-10-16T17:21:38;18.50;99.90
46137;DHT22;31871;49.418;8.752;2022-10-16T17:24:04;18.50;99.90
46137;DHT22;31871;49.418;8.752;2022-10-16T17:26:31;18.50;99.90
46137;DHT22;31871;49.418;8.752;2022-10-16T17:28:59;18.40;99.90
46137;DHT22;31871;49.418;8.752;2022-10-16T17:31:28;18.40;99.90
46137;DHT22;31871;49.418;8.752;2022-10-16T17:33:54;18.40;99.90
46137;DHT22;31871;49.418;8.752;2022-10-16T17:36:20;18.40;99.90
46137;DHT22;31871;49.418;8.752;2022-10-16T17:38:47;18.50;99.90